sensor_id;sensor_type;location;lat;lon;timestamp;temperature;humidity
70151;DHT22;57517;43.562;19.540;2023-04-06T00:01:06;102.80;2150.40
70151;DHT22;57517;43.562;19.540;2023-04-06T00:03:32;102.60;2176.00
70151;DHT22;57517;43.562;19.540;2023-04-06T00:05:58;102.40;2201.60
70151;DHT22;57517;43.562;19.540;2023-04-06T00:08:24;77.70;2201.60
70151;DHT22;57517;43.562;19.540;2023-04-06T00:10:49;77.60;2227.20
70151;DHT22;57517;43.562;19.540;2023-04-06T00:13:15;77.50;2227.20
70151;DHT22;57517;43.562;19.540;2023-04-06T00:15:41;77.50;2227.20
70151;DHT22;57517;43.562;19.540;2023-04-06T00:18:07;77.40;2201.60
70151;DHT22;57517;43.562;19.540;2023-04-06T00:20:32;77.30;2227.20
70151;DHT22;57517;43.562;19.540;2023-04-06T00:22:58;77.40;2227.20
70151;DHT22;57517;43.562;19.540;2023-04-06T00:25:25;77.50;2227.20
70151;DHT22;57517;43.562;19.540;2023-04-06T00:27:51;77.40;2201.60
70151;DHT22;57517;43.562;19.540;2023-04-06T00:30:17;77.30;2176.00
70151;DHT22;57517;43.562;19.540;2023-04-06T00:32:42;77.20;2227.20
70151;DHT22;57517;43.562;19.540;2023-04-06T00:35:08;77.20;2227.20
70151;DHT22;57517;43.562;19.540;2023-04-06T00:37:34;77.20;2201.60
70151;DHT22;57517;43.562;19.540;2023-04-06T00:40:00;77.20;2227.20
70151;DHT22;57517;43.562;19.540;2023-04-06T00:42:26;77.20;2227.20
70151;DHT22;57517;43.562;19.540;2023-04-06T00:44:57;77.30;2227.20
70151;DHT22;57517;43.562;19.540;2023-04-06T00:47:24;77.20;2201.60
70151;DHT22;57517;43.562;19.540;2023-04-06T00:49:54;77.30;2150.40
70151;DHT22;57517;43.562;19.540;2023-04-06T00:52:20;77.30;2124.80
70151;DHT22;57517;43.562;19.540;2023-04-06T00:54:46;77.40;2124.80
70151;DHT22;57517;43.562;19.540;2023-04-06T00:57:12;77.40;2124.80
70151;DHT22;57517;43.562;19.540;2023-04-06T00:59:39;77.40;2124.80
70151;DHT22;57517;43.562;19.540;2023-04-06T01:02:05;77.20;2150.40
70151;DHT22;57517;43.562;19.540;2023-04-06T01:04:32;77.30;2124.80
70151;DHT22;57517;43.562;19.540;2023-04-06T01:06:58;77.30;2201.60
70151;DHT22;57517;43.562;19.540;2023-04-06T01:09:23;77.20;2176.00
70151;DHT22;57517;43.562;19.540;2023-04-06T01:11:49;77.20;2124.80
70151;DHT22;57517;43.562;19.540;2023-04-06T01:14:15;77.30;2124.80
70151;DHT22;57517;43.562;19.540;2023-04-06T01:16:41;77.30;2099.20
70151;DHT22;57517;43.562;19.540;2023-04-06T01:19:13;77.30;2073.60
70151;DHT22;57517;43.562;19.540;2023-04-06T01:21:40;77.30;2099.20
70151;DHT22;57517;43.562;19.540;2023-04-06T01:24:07;77.40;2073.60
70151;DHT22;57517;43.562;19.540;2023-04-06T01:26:34;77.30;2150.40
70151;DHT22;57517;43.562;19.540;2023-04-06T01:29:00;77.20;2150.40
70151;DHT22;57517;43.562;19.540;2023-04-06T01:31:26;77.10;2150.40
70151;DHT22;57517;43.562;19.540;2023-04-06T01:33:53;77.10;2150.40
70151;DHT22;57517;43.562;19.540;2023-04-06T01:36:19;77.20;2150.40
70151;DHT22;57517;43.562;19.540;2023-04-06T01:38:45;77.20;2201.60
70151;DHT22;57517;43.562;19.540;2023-04-06T01:41:11;77.00;2227.20
70151;DHT22;57517;43.562;19.540;2023-04-06T01:43:36;77.10;2201.60
70151;DHT22;57517;43.562;19.540;2023-04-06T01:46:02;77.20;2201.60
70151;DHT22;57517;43.562;19.540;2023-04-06T01:48:28;77.20;2176.00
70151;DHT22;57517;43.562;19.540;2023-04-06T01:50:54;77.40;2124.80
70151;DHT22;57517;43.562;19.540;2023-04-06T01:53:20;77.50;2073.60
70151;DHT22;57517;43.562;19.540;2023-04-06T01:55:46;77.20;2073.60
70151;DHT22;57517;43.562;19.540;2023-04-06T01:58:12;77.30;2073.60
70151;DHT22;57517;43.562;19.540;2023-04-06T02:00:37;77.30;2099.20
70151;DHT22;57517;43.562;19.540;2023-04-06T02:03:03;77.20;2150.40
70151;DHT22;57517;43.562;19.540;2023-04-06T02:05:30;77.10;2124.80
70151;DHT22;57517;43.562;19.540;2023-04-06T02:07:56;77.10;2124.80
70151;DHT22;57517;43.562;19.540;2023-04-06T02:10:22;77.20;2124.80
70151;DHT22;57517;43.562;19.540;2023-04-06T02:12:49;77.10;2073.60
70151;DHT22;57517;43.562;19.540;2023-04-06T02:15:15;76.90;2150.40
70151;DHT22;57517;43.562;19.540;2023-04-06T02:17:41;76.80;2176.00
70151;DHT22;57517;43.562;19.540;2023-04-06T02:20:08;76.90;2176.00
70151;DHT22;57517;43.562;19.540;2023-04-06T02:22:35;76.90;2227.20
70151;DHT22;57517;43.562;19.540;2023-04-06T02:25:01;76.80;2227.20
70151;DHT22;57517;43.562;19.540;2023-04-06T02:27:27;76.90;2227.20
70151;DHT22;57517;43.562;19.540;2023-04-06T02:29:53;77.10;2201.60
70151;DHT22;57517;43.562;19.540;2023-04-06T02:32:19;77.00;2150.40
70151;DHT22;57517;43.562;19.540;2023-04-06T02:34:45;76.80;2227.20
70151;DHT22;57517;43.562;19.540;2023-04-06T02:37:11;76.80;2227.20
70151;DHT22;57517;43.562;19.540;2023-04-06T02:39:36;76.80;2227.20
70151;DHT22;57517;43.562;19.540;2023-04-06T02:42:02;77.00;2201.60
70151;DHT22;57517;43.562;19.540;2023-04-06T02:44:28;77.00;2150.40
70151;DHT22;57517;43.562;19.540;2023-04-06T02:46:53;77.00;2176.00
70151;DHT22;57517;43.562;19.540;2023-04-06T02:49:19;77.00;2150.40
70151;DHT22;57517;43.562;19.540;2023-04-06T02:51:45;77.00;2124.80
70151;DHT22;57517;43.562;19.540;2023-04-06T02:54:11;77.00;2150.40
70151;DHT22;57517;43.562;19.540;2023-04-06T02:56:36;76.90;2150.40
70151;DHT22;57517;43.562;19.540;2023-04-06T02:59:02;76.80;2201.60
70151;DHT22;57517;43.562;19.540;2023-04-06T03:01:28;76.80;2201.60
70151;DHT22;57517;43.562;19.540;2023-04-06T03:03:54;76.80;2227.20
70151;DHT22;57517;43.562;19.540;2023-04-06T03:06:19;76.80;2227.20
70151;DHT22;57517;43.562;19.540;2023-04-06T03:08:45;76.80;2227.20
70151;DHT22;57517;43.562;19.540;2023-04-06T03:11:12;52.10;2227.20
70151;DHT22;57517;43.562;19.540;2023-04-06T03:13:38;76.80;2227.20
70151;DHT22;57517;43.562;19.540;2023-04-06T03:16:05;76.80;2227.20
70151;DHT22;57517;43.562;19.540;2023-04-06T03:18:31;76.80;2227.20
70151;DHT22;57517;43.562;19.540;2023-04-06T03:20:56;76.80;2227.20
70151;DHT22;57517;43.562;19.540;2023-04-06T03:23:22;76.90;2201.60
70151;DHT22;57517;43.562;19.540;2023-04-06T03:25:48;77.00;2227.20
70151;DHT22;57517;43.562;19.540;2023-04-06T03:28:14;77.00;2227.20
70151;DHT22;57517;43.562;19.540;2023-04-06T03:30:41;76.90;2227.20
70151;DHT22;57517;43.562;19.540;2023-04-06T03:33:07;77.10;2201.60
70151;DHT22;57517;43.562;19.540;2023-04-06T03:35:32;77.10;2201.60
70151;DHT22;57517;43.562;19.540;2023-04-06T03:37:58;77.10;2201.60
70151;DHT22;57517;43.562;19.540;2023-04-06T03:40:24;76.90;2227.20
70151;DHT22;57517;43.562;19.540;2023-04-06T03:42:50;77.00;2227.20
70151;DHT22;57517;43.562;19.540;2023-04-06T03:45:16;77.10;2227.20
70151;DHT22;57517;43.562;19.540;2023-04-06T03:47:42;77.20;2201.60
70151;DHT22;57517;43.562;19.540;2023-04-06T03:50:08;77.10;2227.20
70151;DHT22;57517;43.562;19.540;2023-04-06T03:52:35;77.30;2201.60
70151;DHT22;57517;43.562;19.540;2023-04-06T03:55:01;77.30;2176.00
70151;DHT22;57517;43.562;19.540;2023-04-06T03:57:27;77.30;2176.00
70151;DHT22;57517;43.562;19.540;2023-04-06T03:59:53;77.20;2201.60
70151;DHT22;57517;43.562;19.540;2023-04-06T04:02:18;77.30;2150.40
70151;DHT22;57517;43.562;19.540;2023-04-06T04:04:44;77.30;2201.60
70151;DHT22;57517;43.562;19.540;2023-04-06T04:07:10;77.30;2201.60
70151;DHT22;57517;43.562;19.540;2023-04-06T04:09:36;77.40;2124.80
70151;DHT22;57517;43.562;19.540;2023-04-06T04:12:02;77.30;2176.00
70151;DHT22;57517;43.562;19.540;2023-04-06T04:14:28;77.30;2201.60
70151;DHT22;57517;43.562;19.540;2023-04-06T04:16:54;77.30;2201.60
70151;DHT22;57517;43.562;19.540;2023-04-06T04:19:19;77.50;2150.40
70151;DHT22;57517;43.562;19.540;2023-04-06T04:21:46;77.50;2124.80
70151;DHT22;57517;43.562;19.540;2023-04-06T04:24:12;77.50;2150.40
70151;DHT22;57517;43.562;19.540;2023-04-06T04:26:39;77.60;2150.40
70151;DHT22;57517;43.562;19.540;2023-04-06T04:29:05;77.60;2099.20
70151;DHT22;57517;43.562;19.540;2023-04-06T04:31:31;77.60;2048.00
70151;DHT22;57517;43.562;19.540;2023-04-06T04:33:58;77.50;2150.40
70151;DHT22;57517;43.562;19.540;2023-04-06T04:36:23;77.50;2124.80
70151;DHT22;57517;43.562;19.540;2023-04-06T04:38:51;77.40;2073.60
70151;DHT22;57517;43.562;19.540;2023-04-06T04:41:17;77.10;2176.00
70151;DHT22;57517;43.562;19.540;2023-04-06T04:43:43;77.20;2150.40
70151;DHT22;57517;43.562;19.540;2023-04-06T04:46:08;77.20;2176.00
70151;DHT22;57517;43.562;19.540;2023-04-06T04:48:34;77.10;2176.00
70151;DHT22;57517;43.562;19.540;2023-04-06T04:51:00;77.20;2150.40
70151;DHT22;57517;43.562;19.540;2023-04-06T04:53:26;77.10;2227.20
70151;DHT22;57517;43.562;19.540;2023-04-06T04:55:52;77.10;2227.20
70151;DHT22;57517;43.562;19.540;2023-04-06T04:58:17;77.30;2201.60
70151;DHT22;57517;43.562;19.540;2023-04-06T05:00:45;77.30;2176.00
70151;DHT22;57517;43.562;19.540;2023-04-06T05:03:18;77.40;2227.20
70151;DHT22;57517;43.562;19.540;2023-04-06T05:05:45;77.50;2201.60
70151;DHT22;57517;43.562;19.540;2023-04-06T05:08:12;77.40;2201.60
70151;DHT22;57517;43.562;19.540;2023-04-06T05:10:37;77.50;2176.00
70151;DHT22;57517;43.562;19.540;2023-04-06T05:13:03;77.50;2176.00
70151;DHT22;57517;43.562;19.540;2023-04-06T05:15:29;77.40;2201.60
70151;DHT22;57517;43.562;19.540;2023-04-06T05:17:55;77.50;2176.00
70151;DHT22;57517;43.562;19.540;2023-04-06T05:20:21;77.40;2201.60
70151;DHT22;57517;43.562;19.540;2023-04-06T05:22:47;77.40;2227.20
70151;DHT22;57517;43.562;19.540;2023-04-06T05:25:13;77.40;2227.20
70151;DHT22;57517;43.562;19.540;2023-04-06T05:27:40;77.30;2227.20
70151;DHT22;57517;43.562;19.540;2023-04-06T05:30:07;77.10;2227.20
70151;DHT22;57517;43.562;19.540;2023-04-06T05:32:33;77.00;2227.20
70151;DHT22;57517;43.562;19.540;2023-04-06T05:34:59;76.90;2227.20
70151;DHT22;57517;43.562;19.540;2023-04-06T05:37:25;76.80;2227.20
70151;DHT22;57517;43.562;19.540;2023-04-06T05:39:50;76.80;2227.20
70151;DHT22;57517;43.562;19.540;2023-04-06T05:42:16;77.00;2227.20
70151;DHT22;57517;43.562;19.540;2023-04-06T05:44:42;77.10;2227.20
70151;DHT22;57517;43.562;19.540;2023-04-06T05:47:08;77.00;2227.20
70151;DHT22;57517;43.562;19.540;2023-04-06T05:49:34;77.00;2227.20
70151;DHT22;57517;43.562;19.540;2023-04-06T05:52:00;77.20;2227.20
70151;DHT22;57517;43.562;19.540;2023-04-06T05:54:26;77.30;2227.20
70151;DHT22;57517;43.562;19.540;2023-04-06T05:56:52;77.30;2227.20
70151;DHT22;57517;43.562;19.540;2023-04-06T05:59:18;77.00;2227.20
70151;DHT22;57517;43.562;19.540;2023-04-06T06:01:44;77.00;2227.20
70151;DHT22;57517;43.562;19.540;2023-04-06T06:04:09;77.00;2227.20
70151;DHT22;57517;43.562;19.540;2023-04-06T06:06:35;77.10;2227.20
70151;DHT22;57517;43.562;19.540;2023-04-06T06:09:02;77.10;2227.20
70151;DHT22;57517;43.562;19.540;2023-04-06T06:11:29;77.40;2227.20
70151;DHT22;57517;43.562;19.540;2023-04-06T06:13:55;77.30;2227.20
70151;DHT22;57517;43.562;19.540;2023-04-06T06:16:21;77.20;2227.20
70151;DHT22;57517;43.562;19.540;2023-04-06T06:18:47;77.30;2227.20
70151;DHT22;57517;43.562;19.540;2023-04-06T06:21:13;77.40;2227.20
70151;DHT22;57517;43.562;19.540;2023-04-06T06:23:41;77.60;2227.20
70151;DHT22;57517;43.562;19.540;2023-04-06T06:26:07;77.50;2227.20
70151;DHT22;57517;43.562;19.540;2023-04-06T06:28:33;77.30;2227.20
70151;DHT22;57517;43.562;19.540;2023-04-06T06:30:58;77.00;2227.20
70151;DHT22;57517;43.562;19.540;2023-04-06T06:33:24;77.00;2227.20
70151;DHT22;57517;43.562;19.540;2023-04-06T06:35:51;77.10;2227.20
70151;DHT22;57517;43.562;19.540;2023-04-06T06:38:17;77.40;2227.20
70151;DHT22;57517;43.562;19.540;2023-04-06T06:40:45;77.40;2227.20
70151;DHT22;57517;43.562;19.540;2023-04-06T06:43:11;77.30;2227.20
70151;DHT22;57517;43.562;19.540;2023-04-06T06:45:37;77.50;2227.20
70151;DHT22;57517;43.562;19.540;2023-04-06T06:48:03;77.30;2227.20
70151;DHT22;57517;43.562;19.540;2023-04-06T06:50:28;77.30;2227.20
70151;DHT22;57517;43.562;19.540;2023-04-06T06:52:54;77.30;2201.60
70151;DHT22;57517;43.562;19.540;2023-04-06T06:55:20;77.20;2227.20
70151;DHT22;57517;43.562;19.540;2023-04-06T06:57:46;77.30;2227.20
70151;DHT22;57517;43.562;19.540;2023-04-06T07:00:13;77.20;2227.20
70151;DHT22;57517;43.562;19.540;2023-04-06T07:02:40;77.20;2227.20
70151;DHT22;57517;43.562;19.540;2023-04-06T07:05:06;77.20;2227.20
70151;DHT22;57517;43.562;19.540;2023-04-06T07:07:32;77.50;2227.20
70151;DHT22;57517;43.562;19.540;2023-04-06T07:09:59;77.60;2227.20
70151;DHT22;57517;43.562;19.540;2023-04-06T07:12:25;77.60;2227.20
70151;DHT22;57517;43.562;19.540;2023-04-06T07:14:51;77.70;2227.20
70151;DHT22;57517;43.562;19.540;2023-04-06T07:17:17;102.60;2176.00
70151;DHT22;57517;43.562;19.540;2023-04-06T07:19:42;102.40;2176.00
70151;DHT22;57517;43.562;19.540;2023-04-06T07:22:08;102.50;2150.40
70151;DHT22;57517;43.562;19.540;2023-04-06T07:24:34;102.70;2099.20
70151;DHT22;57517;43.562;19.540;2023-04-06T07:27:00;102.40;2176.00
70151;DHT22;57517;43.562;19.540;2023-04-06T07:29:26;102.40;2150.40
70151;DHT22;57517;43.562;19.540;2023-04-06T07:31:52;102.70;2099.20
70151;DHT22;57517;43.562;19.540;2023-04-06T07:34:18;102.80;2099.20
70151;DHT22;57517;43.562;19.540;2023-04-06T07:36:44;102.90;2048.00
70151;DHT22;57517;43.562;19.540;2023-04-06T07:39:10;102.90;1996.80
70151;DHT22;57517;43.562;19.540;2023-04-06T07:41:36;103.00;2022.40
70151;DHT22;57517;43.562;19.540;2023-04-06T07:44:02;103.20;1945.60
70151;DHT22;57517;43.562;19.540;2023-04-06T07:46:28;103.20;1945.60
70151;DHT22;57517;43.562;19.540;2023-04-06T07:48:55;103.20;1945.60
70151;DHT22;57517;43.562;19.540;2023-04-06T07:51:21;103.10;1971.20
70151;DHT22;57517;43.562;19.540;2023-04-06T07:53:47;103.20;1971.20
70151;DHT22;57517;43.562;19.540;2023-04-06T07:56:12;128.00;1945.60
70151;DHT22;57517;43.562;19.540;2023-04-06T07:58:39;128.10;1920.00
70151;DHT22;57517;43.562;19.540;2023-04-06T08:01:04;103.30;1894.40
70151;DHT22;57517;43.562;19.540;2023-04-06T08:03:32;128.00;1945.60
70151;DHT22;57517;43.562;19.540;2023-04-06T08:05:58;128.00;1920.00
70151;DHT22;57517;43.562;19.540;2023-04-06T08:08:24;128.10;1894.40
70151;DHT22;57517;43.562;19.540;2023-04-06T08:10:50;128.20;1894.40
70151;DHT22;57517;43.562;19.540;2023-04-06T08:13:15;128.40;1843.20
70151;DHT22;57517;43.562;19.540;2023-04-06T08:15:42;128.20;1843.20
70151;DHT22;57517;43.562;19.540;2023-04-06T08:18:08;128.70;1792.00
70151;DHT22;57517;43.562;19.540;2023-04-06T08:20:34;128.70;1766.40
70151;DHT22;57517;43.562;19.540;2023-04-06T08:23:00;128.60;1766.40
70151;DHT22;57517;43.562;19.540;2023-04-06T08:25:26;128.40;1766.40
70151;DHT22;57517;43.562;19.540;2023-04-06T08:27:52;128.60;1766.40
70151;DHT22;57517;43.562;19.540;2023-04-06T08:30:18;128.70;1740.80
70151;DHT22;57517;43.562;19.540;2023-04-06T08:32:45;128.70;1740.80
70151;DHT22;57517;43.562;19.540;2023-04-06T08:35:11;128.90;1715.20
70151;DHT22;57517;43.562;19.540;2023-04-06T08:37:37;153.70;1740.80
70151;DHT22;57517;43.562;19.540;2023-04-06T08:40:04;153.90;1689.60
70151;DHT22;57517;43.562;19.540;2023-04-06T08:42:32;153.90;1664.00
70151;DHT22;57517;43.562;19.540;2023-04-06T08:44:59;154.00;1664.00
70151;DHT22;57517;43.562;19.540;2023-04-06T08:47:25;154.20;1664.00
70151;DHT22;57517;43.562;19.540;2023-04-06T08:49:52;154.10;1664.00
70151;DHT22;57517;43.562;19.540;2023-04-06T08:52:19;154.00;1689.60
70151;DHT22;57517;43.562;19.540;2023-04-06T08:54:45;154.00;1689.60
70151;DHT22;57517;43.562;19.540;2023-04-06T08:57:11;153.80;1689.60
70151;DHT22;57517;43.562;19.540;2023-04-06T08:59:38;153.80;1689.60
70151;DHT22;57517;43.562;19.540;2023-04-06T09:02:04;153.80;1664.00
70151;DHT22;57517;43.562;19.540;2023-04-06T09:04:33;154.10;1638.40
70151;DHT22;57517;43.562;19.540;2023-04-06T09:06:59;154.00;1638.40
70151;DHT22;57517;43.562;19.540;2023-04-06T09:09:25;154.00;1689.60
70151;DHT22;57517;43.562;19.540;2023-04-06T09:11:52;154.00;1689.60
70151;DHT22;57517;43.562;19.540;2023-04-06T09:14:37;154.00;1689.60
70151;DHT22;57517;43.562;19.540;2023-04-06T09:17:03;154.30;1664.00
70151;DHT22;57517;43.562;19.540;2023-04-06T09:19:29;154.50;1638.40
70151;DHT22;57517;43.562;19.540;2023-04-06T09:22:05;179.50;1612.80
70151;DHT22;57517;43.562;19.540;2023-04-06T09:27:10;179.40;1536.00
70151;DHT22;57517;43.562;19.540;2023-04-06T09:29:36;179.70;1536.00
70151;DHT22;57517;43.562;19.540;2023-04-06T09:32:06;179.90;1484.80
70151;DHT22;57517;43.562;19.540;2023-04-06T09:34:33;179.90;1484.80
70151;DHT22;57517;43.562;19.540;2023-04-06T09:36:59;179.90;1484.80
70151;DHT22;57517;43.562;19.540;2023-04-06T09:39:25;180.10;1459.20
70151;DHT22;57517;43.562;19.540;2023-04-06T09:41:52;205.00;1459.20
70151;DHT22;57517;43.562;19.540;2023-04-06T09:44:19;205.40;1433.60
70151;DHT22;57517;43.562;19.540;2023-04-06T09:46:46;205.30;1408.00
70151;DHT22;57517;43.562;19.540;2023-04-06T09:49:13;205.30;1408.00
70151;DHT22;57517;43.562;19.540;2023-04-06T09:51:53;205.50;1382.40
70151;DHT22;57517;43.562;19.540;2023-04-06T09:54:21;230.40;1356.80
70151;DHT22;57517;43.562;19.540;2023-04-06T09:57:37;230.70;1331.20
70151;DHT22;57517;43.562;19.540;2023-04-06T10:00:01;230.60;1331.20
70151;DHT22;57517;43.562;19.540;2023-04-06T10:03:09;231.10;1331.20
70151;DHT22;57517;43.562;19.540;2023-04-06T10:05:47;256.00;1280.00
70151;DHT22;57517;43.562;19.540;2023-04-06T10:08:16;231.00;1280.00
70151;DHT22;57517;43.562;19.540;2023-04-06T10:10:43;256.10;1280.00
70151;DHT22;57517;43.562;19.540;2023-04-06T10:13:10;256.40;1228.80
70151;DHT22;57517;43.562;19.540;2023-04-06T10:15:38;281.60;1228.80
70151;DHT22;57517;43.562;19.540;2023-04-06T10:18:06;281.90;1203.20
70151;DHT22;57517;43.562;19.540;2023-04-06T10:21:27;282.40;1152.00
70151;DHT22;57517;43.562;19.540;2023-04-06T10:23:37;282.30;1152.00
70151;DHT22;57517;43.562;19.540;2023-04-06T10:26:05;281.90;1177.60
70151;DHT22;57517;43.562;19.540;2023-04-06T10:28:33;281.60;1177.60
70151;DHT22;57517;43.562;19.540;2023-04-06T10:31:02;282.00;1152.00
70151;DHT22;57517;43.562;19.540;2023-04-06T10:33:28;281.90;1152.00
70151;DHT22;57517;43.562;19.540;2023-04-06T10:35:54;281.70;1152.00
70151;DHT22;57517;43.562;19.540;2023-04-06T10:38:21;281.60;1177.60
70151;DHT22;57517;43.562;19.540;2023-04-06T10:40:48;281.80;1152.00
70151;DHT22;57517;43.562;19.540;2023-04-06T10:43:21;281.90;1152.00
70151;DHT22;57517;43.562;19.540;2023-04-06T10:45:57;282.20;1126.40
70151;DHT22;57517;43.562;19.540;2023-04-06T10:48:23;282.50;1126.40
70151;DHT22;57517;43.562;19.540;2023-04-06T10:50:51;307.50;1100.80
70151;DHT22;57517;43.562;19.540;2023-04-06T10:53:25;307.50;1126.40
70151;DHT22;57517;43.562;19.540;2023-04-06T10:55:52;307.40;1100.80
70151;DHT22;57517;43.562;19.540;2023-04-06T10:58:18;282.50;1075.20
70151;DHT22;57517;43.562;19.540;2023-04-06T11:00:48;282.30;1100.80
70151;DHT22;57517;43.562;19.540;2023-04-06T11:03:16;282.40;1075.20
70151;DHT22;57517;43.562;19.540;2023-04-06T11:05:45;282.40;1100.80
70151;DHT22;57517;43.562;19.540;2023-04-06T11:08:22;307.70;1100.80
70151;DHT22;57517;43.562;19.540;2023-04-06T11:10:48;308.00;1100.80
70151;DHT22;57517;43.562;19.540;2023-04-06T11:13:14;307.70;1100.80
70151;DHT22;57517;43.562;19.540;2023-04-06T11:15:40;332.90;1100.80
70151;DHT22;57517;43.562;19.540;2023-04-06T11:18:06;333.00;1049.60
70151;DHT22;57517;43.562;19.540;2023-04-06T11:20:32;333.00;1049.60
70151;DHT22;57517;43.562;19.540;2023-04-06T11:22:58;332.90;1075.20
70151;DHT22;57517;43.562;19.540;2023-04-06T11:25:25;332.80;1100.80
70151;DHT22;57517;43.562;19.540;2023-04-06T11:27:53;332.80;1075.20
70151;DHT22;57517;43.562;19.540;2023-04-06T11:30:19;307.80;1049.60
70151;DHT22;57517;43.562;19.540;2023-04-06T11:32:45;307.40;1075.20
70151;DHT22;57517;43.562;19.540;2023-04-06T11:35:22;282.40;1100.80
70151;DHT22;57517;43.562;19.540;2023-04-06T11:37:49;282.30;1100.80
70151;DHT22;57517;43.562;19.540;2023-04-06T11:40:15;282.20;1100.80
70151;DHT22;57517;43.562;19.540;2023-04-06T11:42:41;281.90;1126.40
70151;DHT22;57517;43.562;19.540;2023-04-06T11:45:07;307.20;1152.00
70151;DHT22;57517;43.562;19.540;2023-04-06T11:47:36;307.40;1075.20
70151;DHT22;57517;43.562;19.540;2023-04-06T11:50:13;307.20;1075.20
70151;DHT22;57517;43.562;19.540;2023-04-06T11:52:40;307.40;1075.20
70151;DHT22;57517;43.562;19.540;2023-04-06T11:55:14;282.20;1049.60
70151;DHT22;57517;43.562;19.540;2023-04-06T11:57:41;282.10;1075.20
70151;DHT22;57517;43.562;19.540;2023-04-06T12:00:08;282.20;1075.20
70151;DHT22;57517;43.562;19.540;2023-04-06T12:02:35;282.50;1049.60
70151;DHT22;57517;43.562;19.540;2023-04-06T12:05:02;307.40;1075.20
70151;DHT22;57517;43.562;19.540;2023-04-06T12:07:29;307.60;1049.60
70151;DHT22;57517;43.562;19.540;2023-04-06T12:09:55;307.70;1024.00
70151;DHT22;57517;43.562;19.540;2023-04-06T12:12:21;307.90;1024.00
70151;DHT22;57517;43.562;19.540;2023-04-06T12:14:47;307.80;1024.00
70151;DHT22;57517;43.562;19.540;2023-04-06T12:17:13;307.20;1024.00
70151;DHT22;57517;43.562;19.540;2023-04-06T12:19:38;282.10;998.40
70151;DHT22;57517;43.562;19.540;2023-04-06T12:22:04;281.80;1049.60
70151;DHT22;57517;43.562;19.540;2023-04-06T12:24:30;281.80;1049.60
70151;DHT22;57517;43.562;19.540;2023-04-06T12:26:56;281.80;1049.60
70151;DHT22;57517;43.562;19.540;2023-04-06T12:29:23;281.80;1075.20
70151;DHT22;57517;43.562;19.540;2023-04-06T12:31:50;282.00;1049.60
70151;DHT22;57517;43.562;19.540;2023-04-06T12:34:16;282.20;1049.60
70151;DHT22;57517;43.562;19.540;2023-04-06T12:36:42;282.40;1049.60
70151;DHT22;57517;43.562;19.540;2023-04-06T12:39:08;282.00;1049.60
70151;DHT22;57517;43.562;19.540;2023-04-06T12:41:33;282.20;1049.60
70151;DHT22;57517;43.562;19.540;2023-04-06T12:44:00;281.90;1049.60
70151;DHT22;57517;43.562;19.540;2023-04-06T12:46:26;281.70;1075.20
70151;DHT22;57517;43.562;19.540;2023-04-06T12:48:52;282.10;1075.20
70151;DHT22;57517;43.562;19.540;2023-04-06T12:51:19;282.40;1024.00
70151;DHT22;57517;43.562;19.540;2023-04-06T12:53:45;282.30;1024.00
70151;DHT22;57517;43.562;19.540;2023-04-06T12:56:15;282.00;1049.60
70151;DHT22;57517;43.562;19.540;2023-04-06T12:58:42;282.00;1024.00
70151;DHT22;57517;43.562;19.540;2023-04-06T13:01:08;282.10;1024.00
70151;DHT22;57517;43.562;19.540;2023-04-06T13:03:35;282.20;1024.00
70151;DHT22;57517;43.562;19.540;2023-04-06T13:06:01;282.40;1024.00
70151;DHT22;57517;43.562;19.540;2023-04-06T13:08:27;307.40;1024.00
70151;DHT22;57517;43.562;19.540;2023-04-06T13:10:53;307.50;998.40
70151;DHT22;57517;43.562;19.540;2023-04-06T13:13:24;307.40;998.40
70151;DHT22;57517;43.562;19.540;2023-04-06T13:15:51;307.20;1024.00
70151;DHT22;57517;43.562;19.540;2023-04-06T13:18:17;282.30;1024.00
70151;DHT22;57517;43.562;19.540;2023-04-06T13:20:43;282.00;998.40
70151;DHT22;57517;43.562;19.540;2023-04-06T13:23:08;281.90;1024.00
70151;DHT22;57517;43.562;19.540;2023-04-06T13:25:35;282.10;1024.00
70151;DHT22;57517;43.562;19.540;2023-04-06T13:28:00;282.20;1049.60
70151;DHT22;57517;43.562;19.540;2023-04-06T13:30:26;282.40;1152.00
70151;DHT22;57517;43.562;19.540;2023-04-06T13:32:52;282.50;1049.60
70151;DHT22;57517;43.562;19.540;2023-04-06T13:35:18;282.50;1024.00
70151;DHT22;57517;43.562;19.540;2023-04-06T13:37:44;282.10;1049.60
70151;DHT22;57517;43.562;19.540;2023-04-06T13:40:10;282.10;1024.00
70151;DHT22;57517;43.562;19.540;2023-04-06T13:42:36;282.00;1024.00
70151;DHT22;57517;43.562;19.540;2023-04-06T13:45:04;282.30;1024.00
70151;DHT22;57517;43.562;19.540;2023-04-06T13:47:30;282.30;1024.00
70151;DHT22;57517;43.562;19.540;2023-04-06T13:49:55;282.00;998.40
70151;DHT22;57517;43.562;19.540;2023-04-06T13:52:21;281.80;1024.00
70151;DHT22;57517;43.562;19.540;2023-04-06T13:54:48;281.90;1049.60
70151;DHT22;57517;43.562;19.540;2023-04-06T13:57:15;281.90;1049.60
70151;DHT22;57517;43.562;19.540;2023-04-06T13:59:40;256.90;1024.00
70151;DHT22;57517;43.562;19.540;2023-04-06T14:02:08;256.60;1024.00
70151;DHT22;57517;43.562;19.540;2023-04-06T14:04:34;256.40;1075.20
70151;DHT22;57517;43.562;19.540;2023-04-06T14:07:00;256.50;1075.20
70151;DHT22;57517;43.562;19.540;2023-04-06T14:09:27;256.60;1075.20
70151;DHT22;57517;43.562;19.540;2023-04-06T14:11:53;256.50;1049.60
70151;DHT22;57517;43.562;19.540;2023-04-06T14:14:19;256.40;1075.20
70151;DHT22;57517;43.562;19.540;2023-04-06T14:16:46;256.20;1075.20
70151;DHT22;57517;43.562;19.540;2023-04-06T14:19:14;231.20;1100.80
70151;DHT22;57517;43.562;19.540;2023-04-06T14:21:41;231.00;1126.40
70151;DHT22;57517;43.562;19.540;2023-04-06T14:24:09;231.10;1126.40
70151;DHT22;57517;43.562;19.540;2023-04-06T14:26:38;256.00;1100.80
70151;DHT22;57517;43.562;19.540;2023-04-06T14:29:04;256.00;1100.80
70151;DHT22;57517;43.562;19.540;2023-04-06T14:31:31;231.30;1100.80
70151;DHT22;57517;43.562;19.540;2023-04-06T14:33:57;231.30;1126.40
70151;DHT22;57517;43.562;19.540;2023-04-06T14:36:23;256.00;1152.00
70151;DHT22;57517;43.562;19.540;2023-04-06T14:38:49;256.10;1152.00
70151;DHT22;57517;43.562;19.540;2023-04-06T14:41:21;256.10;1126.40